createdAt,value
2023-03-29T00:00:49.673Z,0.95
2023-03-29T00:03:54.009Z,1.13
2023-03-29T00:06:56.928Z,0.80
2023-03-29T00:09:59.203Z,0.77
2023-03-29T00:13:02.292Z,0.60
2023-03-29T00:16:05.264Z,0.80
2023-03-29T00:19:09.284Z,0.60
2023-03-29T00:22:11.866Z,1.13
2023-03-29T00:25:14.139Z,0.60
2023-03-29T00:28:16.425Z,0.73
2023-03-29T00:31:18.906Z,0.70
2023-03-29T00:34:23.286Z,0.73
2023-03-29T00:37:26.872Z,0.65
2023-03-29T00:40:29.136Z,0.77
2023-03-29T00:43:31.427Z,0.70
2023-03-29T00:46:34.953Z,0.70
2023-03-29T00:49:38.610Z,0.70
2023-03-29T00:52:42.807Z,0.60
2023-03-29T00:55:49.447Z,0.60
2023-03-29T00:58:57.322Z,0.75
2023-03-29T01:02:02.145Z,0.60
2023-03-29T01:05:08.397Z,0.60
2023-03-29T01:08:18.343Z,0.57
2023-03-29T01:11:24.556Z,0.75
2023-03-29T01:14:31.084Z,0.70
2023-03-29T01:17:33.468Z,0.70
2023-03-29T01:20:46.054Z,0.77
2023-03-29T01:24:07.286Z,0.70
2023-03-29T01:27:14.008Z,0.60
2023-03-29T01:30:20.649Z,0.77
2023-03-29T01:33:26.258Z,0.88
2023-03-29T01:36:34.916Z,0.70
2023-03-29T01:39:37.307Z,0.70
2023-03-29T01:42:44.360Z,0.80
2023-03-29T01:45:51.540Z,0.70
2023-03-29T01:48:57.020Z,0.60
2023-03-29T01:52:01.640Z,0.70
2023-03-29T01:55:09.332Z,0.70
2023-03-29T01:58:12.538Z,0.88
2023-03-29T02:01:20.449Z,0.60
2023-03-29T02:04:26.667Z,0.90
2023-03-29T02:07:37.284Z,0.63
2023-03-29T02:10:39.968Z,0.70
2023-03-29T02:13:42.335Z,0.90
2023-03-29T02:16:46.407Z,0.90
2023-03-29T02:19:53.470Z,0.93
2023-03-29T02:23:02.653Z,0.75
2023-03-29T02:26:06.703Z,1.30
2023-03-29T02:29:10.364Z,0.82
2023-03-29T02:32:16.766Z,0.70
2023-03-29T02:35:22.240Z,0.70
2023-03-29T02:38:25.577Z,0.77
2023-03-29T02:41:28.782Z,0.90
2023-03-29T02:44:32.821Z,1.10
2023-03-29T02:47:39.518Z,0.70
2023-03-29T02:50:43.588Z,0.90
2023-03-29T02:53:50.056Z,0.55
2023-03-29T02:56:57.183Z,0.60
2023-03-29T03:00:00.080Z,0.70
2023-03-29T03:03:04.569Z,0.98
2023-03-29T03:06:07.078Z,1.00
2023-03-29T03:09:10.035Z,0.80
2023-03-29T03:12:15.437Z,1.00
2023-03-29T03:15:18.400Z,0.80
2023-03-29T03:18:22.516Z,0.73
2023-03-29T03:21:25.712Z,0.77
2023-03-29T03:24:28.349Z,0.85
2023-03-29T03:27:33.813Z,0.70
2023-03-29T03:30:36.094Z,0.90
2023-03-29T03:33:58.857Z,0.70
2023-03-29T03:37:12.110Z,0.82
2023-03-29T03:40:15.620Z,0.80
2023-03-29T03:43:18.091Z,0.80
2023-03-29T03:46:22.806Z,0.90
2023-03-29T03:49:27.236Z,0.70
2023-03-29T03:52:29.827Z,0.70
2023-03-29T03:55:33.447Z,0.70
2023-03-29T03:58:47.755Z,0.90
2023-03-29T04:01:52.676Z,0.82
2023-03-29T04:05:02.983Z,0.70
2023-03-29T04:08:10.708Z,0.60
2023-03-29T04:11:33.599Z,0.85
2023-03-29T04:14:35.908Z,0.68
2023-03-29T04:18:07.599Z,0.85
2023-03-29T04:21:20.014Z,0.70
2023-03-29T04:24:24.209Z,0.73
2023-03-29T04:27:46.999Z,0.73
2023-03-29T04:31:00.491Z,0.75
2023-03-29T04:34:21.592Z,0.80
2023-03-29T04:37:27.971Z,0.80
2023-03-29T04:40:30.776Z,0.80
2023-03-29T04:43:59.291Z,0.90
2023-03-29T04:47:05.155Z,0.90
2023-03-29T04:50:30.920Z,0.70
2023-03-29T04:53:35.129Z,0.80
2023-03-29T04:56:38.009Z,0.70
2023-03-29T05:03:43.901Z,0.68
2023-03-29T05:06:55.488Z,0.77
2023-03-29T05:09:59.697Z,0.98
2023-03-29T05:13:04.107Z,0.75
2023-03-29T05:16:07.851Z,0.80
2023-03-29T05:19:12.952Z,0.70
2023-03-29T05:22:21.612Z,0.80
2023-03-29T05:25:26.358Z,0.70
2023-03-29T05:28:28.694Z,0.90
2023-03-29T05:31:32.669Z,0.68
2023-03-29T05:34:36.395Z,0.90
2023-03-29T05:37:39.178Z,0.80
2023-03-29T05:40:43.661Z,0.80
2023-03-29T05:43:54.731Z,0.70
2023-03-29T05:46:59.947Z,0.77
2023-03-29T05:50:02.389Z,0.80
2023-03-29T05:53:05.036Z,0.60
2023-03-29T05:56:10.783Z,0.75
2023-03-29T05:59:13.888Z,0.80
2023-03-29T06:02:16.847Z,0.85
2023-03-29T06:05:23.902Z,0.80
2023-03-29T06:08:34.948Z,0.90
2023-03-29T06:12:05.260Z,0.70
2023-03-29T06:15:14.159Z,0.60
2023-03-29T06:18:21.598Z,0.82
2023-03-29T06:21:26.570Z,0.65
2023-03-29T06:24:29.406Z,0.90
2023-03-29T06:27:39.412Z,0.80
2023-03-29T06:30:43.686Z,1.00
2023-03-29T06:33:47.411Z,0.90
2023-03-29T06:37:03.560Z,0.82
2023-03-29T06:40:10.062Z,0.68
2023-03-29T06:46:40.815Z,0.73
2023-03-29T06:49:44.474Z,0.93
2023-03-29T06:53:13.410Z,1.20
2023-03-29T06:56:17.555Z,1.10
2023-03-29T06:59:31.125Z,0.88
2023-03-29T07:02:41.147Z,0.80
2023-03-29T07:05:47.370Z,0.90
2023-03-29T07:08:52.584Z,0.95
2023-03-29T07:12:22.351Z,0.93
2023-03-29T07:15:27.520Z,1.00
2023-03-29T07:18:46.877Z,0.80
2023-03-29T07:22:00.283Z,0.80
2023-03-29T07:25:27.440Z,0.85
2023-03-29T07:28:29.887Z,0.80
2023-03-29T07:31:35.811Z,0.93
2023-03-29T07:35:01.266Z,0.80
2023-03-29T07:38:09.388Z,0.70
2023-03-29T07:41:14.997Z,0.85
2023-03-29T07:44:23.528Z,0.90
2023-03-29T07:47:27.957Z,0.90
2023-03-29T07:50:32.571Z,1.00
2023-03-29T07:53:37.132Z,0.80
2023-03-29T07:56:47.659Z,0.70
2023-03-29T07:59:58.865Z,0.68
2023-03-29T08:03:07.341Z,0.80
2023-03-29T08:06:09.938Z,0.80
2023-03-29T08:09:12.870Z,1.00
2023-03-29T08:12:18.226Z,0.85
2023-03-29T08:15:20.626Z,0.80
2023-03-29T08:18:24.519Z,1.30
2023-03-29T08:21:26.959Z,0.80
2023-03-29T08:24:29.349Z,0.80
2023-03-29T08:27:37.670Z,0.90
2023-03-29T08:30:42.175Z,0.88
2023-03-29T08:33:46.338Z,0.90
2023-03-29T08:37:09.744Z,0.98
2023-03-29T08:40:21.722Z,1.13
2023-03-29T08:43:58.084Z,1.02
2023-03-29T08:47:19.122Z,1.13
2023-03-29T08:50:31.264Z,0.80
2023-03-29T08:53:35.605Z,0.90
2023-03-29T08:56:47.471Z,0.70
2023-03-29T08:59:58.704Z,1.00
2023-03-29T09:03:02.910Z,1.05
2023-03-29T09:06:08.699Z,1.38
2023-03-29T09:09:14.626Z,0.85
2023-03-29T09:12:28.617Z,0.63
2023-03-29T09:15:35.267Z,1.00
2023-03-29T09:18:58.329Z,1.00
2023-03-29T09:22:09.506Z,0.90
2023-03-29T09:25:14.592Z,0.90
2023-03-29T09:28:22.001Z,1.45
2023-03-29T09:31:32.790Z,0.90
2023-03-29T09:34:38.604Z,0.93
2023-03-29T09:37:49.261Z,0.80
2023-03-29T09:40:54.798Z,1.23
2023-03-29T09:44:01.533Z,1.00
2023-03-29T09:47:11.608Z,0.93
2023-03-29T09:50:30.009Z,1.15
2023-03-29T09:53:36.131Z,1.48
2023-03-29T09:57:10.645Z,2.20
2023-03-29T10:00:14.884Z,1.23
2023-03-29T10:03:19.156Z,0.98
2023-03-29T10:09:36.321Z,0.85
2023-03-29T10:12:53.039Z,0.90
2023-03-29T10:16:02.133Z,0.98
2023-03-29T10:19:17.064Z,1.10
2023-03-29T10:22:23.136Z,1.20
2023-03-29T10:25:29.359Z,0.85
2023-03-29T10:28:32.409Z,0.88
2023-03-29T10:31:38.796Z,1.00
2023-03-29T10:34:41.595Z,1.00
2023-03-29T10:37:45.971Z,1.00
2023-03-29T10:40:51.809Z,1.48
2023-03-29T10:43:54.726Z,1.10
2023-03-29T10:47:07.620Z,0.93
2023-03-29T10:50:15.348Z,0.90
2023-03-29T10:53:22.843Z,0.93
2023-03-29T10:56:37.095Z,0.90
2023-03-29T10:59:47.475Z,0.90
2023-03-29T11:03:14.452Z,0.77
2023-03-29T11:06:23.502Z,0.80
2023-03-29T11:09:38.209Z,0.88
2023-03-29T11:12:46.629Z,0.93
2023-03-29T11:15:56.384Z,0.98
2023-03-29T11:19:07.954Z,0.98
2023-03-29T11:22:14.694Z,0.80
2023-03-29T11:25:33.539Z,0.93
2023-03-29T11:28:41.088Z,0.80
2023-03-29T11:31:49.707Z,1.23
2023-03-29T11:35:01.481Z,0.90
2023-03-29T11:41:14.746Z,0.65
2023-03-29T11:44:21.052Z,0.68
2023-03-29T11:47:26.764Z,0.85
2023-03-29T11:50:42.089Z,0.82
2023-03-29T11:53:50.232Z,0.80
2023-03-29T11:56:56.221Z,0.80
2023-03-29T12:00:05.224Z,0.80
2023-03-29T12:03:19.645Z,1.02
2023-03-29T12:06:26.261Z,0.55
2023-03-29T12:09:33.338Z,0.40
2023-03-29T12:12:41.975Z,0.40
2023-03-29T12:15:48.462Z,0.43
2023-03-29T12:18:54.103Z,0.50
2023-03-29T12:21:57.334Z,0.50
2023-03-29T12:25:02.824Z,0.50
2023-03-29T12:28:15.960Z,0.70
2023-03-29T12:31:23.499Z,0.40
2023-03-29T12:34:47.660Z,0.50
2023-03-29T12:38:21.594Z,0.45
2023-03-29T12:41:48.920Z,0.30
2023-03-29T12:45:30.698Z,0.35
2023-03-29T12:48:37.625Z,0.40
2023-03-29T12:51:41.845Z,0.30
2023-03-29T12:54:53.495Z,0.50
2023-03-29T12:58:02.251Z,0.40
2023-03-29T13:01:06.910Z,0.57
2023-03-29T13:04:17.581Z,0.40
2023-03-29T13:07:30.620Z,0.50
2023-03-29T13:10:38.244Z,0.30
2023-03-29T13:13:41.613Z,0.35
2023-03-29T13:16:44.114Z,0.28
2023-03-29T13:19:52.179Z,0.20
2023-03-29T13:23:02.300Z,0.30
2023-03-29T13:26:21.421Z,0.20
2023-03-29T13:29:56.495Z,0.20
2023-03-29T13:33:12.013Z,0.40
2023-03-29T13:36:25.201Z,0.22
2023-03-29T13:39:29.486Z,0.20
2023-03-29T13:42:40.084Z,0.45
2023-03-29T13:45:42.422Z,0.32
2023-03-29T13:48:52.742Z,0.40
2023-03-29T13:52:16.219Z,0.32
2023-03-29T13:55:22.574Z,0.45
2023-03-29T13:58:32.885Z,0.30
2023-03-29T14:01:39.582Z,0.20
2023-03-29T14:04:45.245Z,0.30
2023-03-29T14:07:50.813Z,0.30
2023-03-29T14:10:53.757Z,0.25
2023-03-29T14:13:57.608Z,0.30
2023-03-29T14:17:00.767Z,0.28
2023-03-29T14:20:08.955Z,0.30
2023-03-29T14:23:17.562Z,0.28
2023-03-29T14:26:21.530Z,0.38
2023-03-29T14:29:25.576Z,0.30
2023-03-29T14:32:29.687Z,0.30
2023-03-29T14:35:33.211Z,0.32
2023-03-29T14:38:37.787Z,0.35
2023-03-29T14:41:42.236Z,0.45
2023-03-29T14:44:45.010Z,0.40
2023-03-29T14:47:48.808Z,0.30
2023-03-29T14:50:51.477Z,0.30
2023-03-29T14:53:55.957Z,0.40
2023-03-29T14:56:59.406Z,0.45
2023-03-29T15:00:08.008Z,0.50
2023-03-29T15:03:13.751Z,0.30
2023-03-29T15:06:16.987Z,0.35
2023-03-29T15:09:28.421Z,0.35
2023-03-29T15:12:31.685Z,0.40
2023-03-29T15:15:36.381Z,0.50
2023-03-29T15:18:40.126Z,0.38
2023-03-29T15:21:43.240Z,0.30
2023-03-29T15:24:48.920Z,0.40
2023-03-29T15:27:55.340Z,0.30
2023-03-29T15:31:07.163Z,0.30
2023-03-29T15:34:11.952Z,0.52
2023-03-29T15:37:14.316Z,0.30
2023-03-29T15:40:20.162Z,0.40
2023-03-29T15:43:23.641Z,0.57
2023-03-29T15:46:26.333Z,0.47
2023-03-29T15:49:30.767Z,0.50
2023-03-29T15:52:33.030Z,0.40
2023-03-29T15:55:39.763Z,0.40
2023-03-29T15:58:42.080Z,0.40
2023-03-29T16:01:44.942Z,0.47
2023-03-29T16:04:47.370Z,0.60
2023-03-29T16:07:49.798Z,0.75
2023-03-29T16:10:53.584Z,0.60
2023-03-29T16:13:58.636Z,0.63
2023-03-29T16:17:03.004Z,0.50
2023-03-29T16:20:10.355Z,0.43
2023-03-29T16:23:13.156Z,0.55
2023-03-29T16:26:17.229Z,0.60
2023-03-29T16:29:19.550Z,0.40
2023-03-29T16:32:21.959Z,0.50
2023-03-29T16:35:26.243Z,1.02
2023-03-29T16:38:29.229Z,0.60
2023-03-29T16:41:33.284Z,0.40
2023-03-29T16:44:35.725Z,0.60
2023-03-29T16:47:39.467Z,0.50
2023-03-29T16:50:41.774Z,0.52
2023-03-29T16:53:44.215Z,0.63
2023-03-29T16:56:48.173Z,0.60
2023-03-29T16:59:50.400Z,0.70
2023-03-29T17:02:52.865Z,0.70
2023-03-29T17:05:55.210Z,0.47
2023-03-29T17:08:59.097Z,0.43
2023-03-29T17:12:02.725Z,0.40
2023-03-29T17:15:07.625Z,0.43
2023-03-29T17:18:10.159Z,0.43
2023-03-29T17:21:12.524Z,0.50
2023-03-29T17:24:14.862Z,0.73
2023-03-29T17:27:19.021Z,0.40
2023-03-29T17:30:21.521Z,0.30
2023-03-29T17:33:25.842Z,0.45
2023-03-29T17:36:28.911Z,0.68
2023-03-29T17:39:32.117Z,0.50
2023-03-29T17:42:36.093Z,0.40
2023-03-29T17:45:38.499Z,0.30
2023-03-29T17:48:40.919Z,0.38
2023-03-29T17:51:43.170Z,0.30
2023-03-29T17:54:45.591Z,0.30
2023-03-29T17:57:49.299Z,0.40
2023-03-29T18:00:51.659Z,0.40
2023-03-29T18:03:53.973Z,0.40
2023-03-29T18:06:56.278Z,0.40
2023-03-29T18:09:58.583Z,0.40
2023-03-29T18:13:03.026Z,0.50
2023-03-29T18:16:07.041Z,0.60
2023-03-29T18:19:10.766Z,0.57
2023-03-29T18:22:13.119Z,0.40
2023-03-29T18:25:18.203Z,0.40
2023-03-29T18:28:24.976Z,0.40
2023-03-29T18:31:28.147Z,0.40
2023-03-29T18:34:30.715Z,0.60
2023-03-29T18:37:33.152Z,0.60
2023-03-29T18:40:36.158Z,0.50
2023-03-29T18:43:40.600Z,0.32
2023-03-29T18:46:43.022Z,0.60
2023-03-29T18:49:45.746Z,0.50
2023-03-29T18:52:48.227Z,0.57
2023-03-29T18:55:50.662Z,0.40
2023-03-29T18:58:54.647Z,0.90
2023-03-29T19:01:59.796Z,0.70
2023-03-29T19:05:06.821Z,0.40
2023-03-29T19:08:10.598Z,0.40
2023-03-29T19:11:14.467Z,0.47
2023-03-29T19:14:23.548Z,0.70
2023-03-29T19:17:27.264Z,0.80
2023-03-29T19:20:29.998Z,0.60
2023-03-29T19:23:32.836Z,0.98
2023-03-29T19:26:35.529Z,0.80
2023-03-29T19:29:39.446Z,0.60
2023-03-29T19:32:41.920Z,0.65
2023-03-29T19:35:44.532Z,0.60
2023-03-29T19:38:47.002Z,0.65
2023-03-29T19:41:49.579Z,0.52
2023-03-29T19:44:53.343Z,0.60
2023-03-29T19:47:56.159Z,0.77
2023-03-29T19:51:01.131Z,0.60
2023-03-29T19:54:03.734Z,0.80
2023-03-29T19:57:07.316Z,0.75
2023-03-29T20:00:14.117Z,0.63
2023-03-29T20:03:16.533Z,0.70
2023-03-29T20:06:20.086Z,0.50
2023-03-29T20:09:22.401Z,0.60
2023-03-29T20:12:24.942Z,0.60
2023-03-29T20:15:28.940Z,0.80
2023-03-29T20:18:32.149Z,1.00
2023-03-29T20:21:37.230Z,0.82
2023-03-29T20:24:39.821Z,0.65
2023-03-29T20:27:42.807Z,1.50
2023-03-29T20:30:51.094Z,0.80
2023-03-29T20:33:53.708Z,1.20
2023-03-29T20:37:00.876Z,0.70
2023-03-29T20:40:05.294Z,1.13
2023-03-29T20:43:13.220Z,0.70
2023-03-29T20:46:23.784Z,0.70
2023-03-29T20:49:26.722Z,1.33
2023-03-29T20:52:28.997Z,0.90
2023-03-29T20:55:33.195Z,0.70
2023-03-29T20:58:35.557Z,1.00
2023-03-29T21:01:40.836Z,0.85
2023-03-29T21:04:44.069Z,0.70
2023-03-29T21:07:47.983Z,0.80
2023-03-29T21:10:51.702Z,0.80
2023-03-29T21:13:54.008Z,1.05
2023-03-29T21:16:57.816Z,0.90
2023-03-29T21:19:59.958Z,0.90
2023-03-29T21:23:02.546Z,0.90
2023-03-29T21:26:07.238Z,0.90
2023-03-29T21:29:09.622Z,1.13
2023-03-29T21:32:13.175Z,0.70
2023-03-29T21:35:15.556Z,1.10
2023-03-29T21:38:18.771Z,0.70
2023-03-29T21:41:21.895Z,0.80
2023-03-29T21:44:24.684Z,0.70
2023-03-29T21:47:28.346Z,1.25
2023-03-29T21:50:33.248Z,0.73
2023-03-29T21:53:36.313Z,0.80
2023-03-29T21:56:39.430Z,0.80
2023-03-29T21:59:41.764Z,0.60
2023-03-29T22:02:46.132Z,1.00
2023-03-29T22:05:58.396Z,0.60
2023-03-29T22:09:00.802Z,0.80
2023-03-29T22:12:03.490Z,0.90
2023-03-29T22:15:07.199Z,0.70
2023-03-29T22:18:12.443Z,0.80
2023-03-29T22:21:16.407Z,0.63
2023-03-29T22:24:18.854Z,0.80
2023-03-29T22:27:21.445Z,0.70
2023-03-29T22:30:23.756Z,0.65
2023-03-29T22:33:27.296Z,0.63
2023-03-29T22:36:30.982Z,0.82
2023-03-29T22:39:34.609Z,0.77
2023-03-29T22:42:36.994Z,1.13
2023-03-29T22:45:39.340Z,0.60
2023-03-29T22:48:42.996Z,0.60
2023-03-29T22:51:53.763Z,0.80
2023-03-29T22:54:56.377Z,0.70
2023-03-29T22:57:58.621Z,0.60
2023-03-29T23:01:01.607Z,1.13
2023-03-29T23:04:04.513Z,0.80
2023-03-29T23:07:08.209Z,0.52
2023-03-29T23:10:11.606Z,0.63
2023-03-29T23:13:17.342Z,0.80
2023-03-29T23:16:22.624Z,0.70
2023-03-29T23:19:24.869Z,0.63
2023-03-29T23:22:28.649Z,0.70
2023-03-29T23:25:31.576Z,0.65
2023-03-29T23:28:34.705Z,0.70
2023-03-29T23:31:37.813Z,0.65
2023-03-29T23:34:40.476Z,0.60
2023-03-29T23:37:44.878Z,0.80
2023-03-29T23:40:53.000Z,0.63
2023-03-29T23:43:57.580Z,0.80
2023-03-29T23:47:00.057Z,0.63
2023-03-29T23:50:02.832Z,1.23
2023-03-29T23:53:06.466Z,0.68
2023-03-29T23:56:09.125Z,0.60
2023-03-29T23:59:11.437Z,0.40
